createdAt,value
2018-08-28T00:01:41.300Z,2.23
2018-08-28T00:04:15.812Z,2.37
2018-08-28T00:06:50.824Z,2.37
2018-08-28T00:09:25.225Z,2.50
2018-08-28T00:11:59.652Z,2.50
2018-08-28T00:14:33.952Z,2.63
2018-08-28T00:17:08.494Z,2.43
2018-08-28T00:19:43.359Z,2.13
2018-08-28T00:22:18.228Z,2.33
2018-08-28T00:24:52.648Z,2.33
2018-08-28T00:27:27.109Z,2.60
2018-08-28T00:30:01.759Z,2.43
2018-08-28T00:32:36.259Z,2.30
2018-08-28T00:35:10.840Z,2.40
2018-08-28T00:37:45.633Z,2.53
2018-08-28T00:40:20.091Z,2.50
2018-08-28T00:42:54.537Z,2.50
2018-08-28T00:45:29.399Z,2.60
2018-08-28T00:48:04.120Z,2.60
2018-08-28T00:50:38.804Z,2.53
2018-08-28T00:53:13.213Z,2.70
2018-08-28T00:55:47.659Z,2.70
2018-08-28T00:58:22.396Z,2.50
2018-08-28T01:00:56.955Z,3.13
2018-08-28T01:03:31.482Z,2.70
2018-08-28T01:06:05.984Z,2.60
2018-08-28T01:08:40.454Z,2.43
2018-08-28T01:11:14.842Z,2.53
2018-08-28T01:13:49.491Z,2.73
2018-08-28T01:16:24.183Z,2.70
2018-08-28T01:18:58.993Z,2.60
2018-08-28T01:21:33.830Z,2.60
2018-08-28T01:24:08.704Z,2.50
2018-08-28T01:26:43.096Z,2.80
2018-08-28T01:29:18.115Z,2.63
2018-08-28T01:31:53.042Z,2.80
2018-08-28T01:34:27.479Z,2.37
2018-08-28T01:37:01.965Z,2.60
2018-08-28T01:39:36.468Z,2.80
2018-08-28T01:42:11.002Z,3.20
2018-08-28T01:44:46.192Z,2.97
2018-08-28T01:47:21.338Z,3.20
2018-08-28T01:49:56.216Z,2.70
2018-08-28T01:52:30.738Z,2.83
2018-08-28T01:55:05.068Z,2.70
2018-08-28T01:57:39.588Z,2.73
2018-08-28T02:00:14.091Z,2.70
2018-08-28T02:02:48.531Z,2.67
2018-08-28T02:05:22.871Z,2.60
2018-08-28T02:07:57.196Z,2.80
2018-08-28T02:10:31.635Z,2.70
2018-08-28T02:13:06.391Z,2.70
2018-08-28T02:15:40.948Z,2.50
2018-08-28T02:18:15.539Z,2.70
2018-08-28T02:20:50.784Z,2.83
2018-08-28T02:23:25.243Z,2.87
2018-08-28T02:25:59.736Z,2.50
2018-08-28T02:28:34.157Z,2.57
2018-08-28T02:31:08.516Z,2.50
2018-08-28T02:33:42.980Z,2.90
2018-08-28T02:36:17.984Z,2.80
2018-08-28T02:38:52.904Z,2.70
2018-08-28T02:41:27.784Z,2.93
2018-08-28T02:44:02.752Z,3.20
2018-08-28T02:46:37.495Z,2.80
2018-08-28T02:49:11.942Z,2.70
2018-08-28T02:51:45.736Z,2.80
2018-08-28T02:54:20.173Z,3.20
2018-08-28T02:56:54.590Z,2.80
2018-08-28T02:59:32.131Z,2.90
2018-08-28T03:02:06.976Z,2.70
2018-08-28T03:04:41.449Z,2.70
2018-08-28T03:07:16.120Z,2.83
2018-08-28T03:09:49.526Z,2.70
2018-08-28T03:12:23.809Z,2.83
2018-08-28T03:14:58.533Z,2.97
2018-08-28T03:17:33.276Z,2.80
2018-08-28T03:20:08.581Z,2.70
2018-08-28T03:22:42.875Z,2.93
2018-08-28T03:25:17.191Z,2.80
2018-08-28T03:27:52.172Z,2.90
2018-08-28T03:30:26.554Z,2.90
2018-08-28T03:33:01.309Z,3.10
2018-08-28T03:35:35.993Z,2.90
2018-08-28T03:38:10.731Z,2.83
2018-08-28T03:40:45.132Z,2.70
2018-08-28T03:43:19.854Z,2.93
2018-08-28T03:45:54.986Z,2.70
2018-08-28T03:48:29.351Z,2.90
2018-08-28T03:51:03.908Z,2.90
2018-08-28T03:53:38.296Z,3.00
2018-08-28T03:56:12.717Z,2.80
2018-08-28T03:58:47.296Z,2.90
2018-08-28T04:01:22.327Z,3.07
2018-08-28T04:03:56.971Z,2.90
2018-08-28T04:06:31.861Z,3.33
2018-08-28T04:09:07.620Z,2.90
2018-08-28T04:11:42.095Z,3.00
2018-08-28T04:14:16.734Z,3.00
2018-08-28T04:16:51.467Z,3.20
2018-08-28T04:19:26.367Z,3.37
2018-08-28T04:22:00.820Z,3.07
2018-08-28T04:24:35.647Z,3.17
2018-08-28T04:27:10.835Z,3.00
2018-08-28T04:29:45.231Z,3.17
2018-08-28T04:32:19.544Z,3.27
2018-08-28T04:34:53.875Z,3.10
2018-08-28T04:37:28.194Z,3.33
2018-08-28T04:40:02.513Z,3.20
2018-08-28T04:42:36.970Z,3.37
2018-08-28T04:45:11.633Z,3.40
2018-08-28T04:47:46.063Z,3.27
2018-08-28T04:50:20.582Z,3.17
2018-08-28T04:52:55.420Z,3.30
2018-08-28T04:55:30.355Z,3.50
2018-08-28T04:58:05.236Z,3.50
2018-08-28T05:00:39.664Z,3.20
2018-08-28T05:03:14.616Z,3.43
2018-08-28T05:05:49.107Z,3.27
2018-08-28T05:08:23.851Z,3.00
2018-08-28T05:10:58.264Z,3.03
2018-08-28T05:13:32.968Z,3.10
2018-08-28T05:16:07.535Z,3.00
2018-08-28T05:18:42.100Z,2.80
2018-08-28T05:21:16.525Z,3.17
2018-08-28T05:23:51.219Z,2.80
2018-08-28T05:26:25.643Z,2.83
2018-08-28T05:29:00.487Z,2.97
2018-08-28T05:31:34.800Z,3.10
2018-08-28T05:34:09.137Z,3.13
2018-08-28T05:36:43.808Z,3.20
2018-08-28T05:39:18.332Z,3.10
2018-08-28T05:41:52.696Z,3.20
2018-08-28T05:44:27.172Z,3.00
2018-08-28T05:47:01.495Z,3.30
2018-08-28T05:49:35.930Z,3.50
2018-08-28T05:52:11.031Z,3.00
2018-08-28T05:54:45.435Z,3.33
2018-08-28T05:57:19.742Z,3.07
2018-08-28T05:59:54.016Z,3.40
2018-08-28T06:02:28.540Z,3.13
2018-08-28T06:05:03.349Z,3.20
2018-08-28T06:07:38.151Z,3.20
2018-08-28T06:10:12.985Z,3.10
2018-08-28T06:12:47.371Z,3.10
2018-08-28T06:15:22.168Z,3.40
2018-08-28T06:17:56.833Z,3.10
2018-08-28T06:20:31.928Z,3.20
2018-08-28T06:23:06.972Z,3.47
2018-08-28T06:25:41.807Z,3.43
2018-08-28T06:28:16.503Z,3.40
2018-08-28T06:30:51.035Z,3.30
2018-08-28T06:33:25.920Z,3.20
2018-08-28T06:36:00.403Z,3.47
2018-08-28T06:38:35.135Z,3.70
2018-08-28T06:41:09.811Z,3.20
2018-08-28T06:43:44.522Z,3.50
2018-08-28T06:46:19.479Z,3.13
2018-08-28T06:48:54.083Z,3.37
2018-08-28T06:51:28.539Z,3.33
2018-08-28T06:54:03.185Z,3.53
2018-08-28T06:56:37.667Z,3.53
2018-08-28T06:59:12.383Z,3.40
2018-08-28T07:01:47.188Z,3.20
2018-08-28T07:04:22.041Z,3.40
2018-08-28T07:06:56.843Z,3.70
2018-08-28T07:09:31.199Z,3.60
2018-08-28T07:12:05.680Z,3.00
2018-08-28T07:14:40.179Z,3.17
2018-08-28T07:17:14.499Z,3.83
2018-08-28T07:19:49.175Z,3.40
2018-08-28T07:22:24.516Z,3.00
2018-08-28T07:24:59.002Z,3.30
2018-08-28T07:27:33.569Z,3.63
2018-08-28T07:30:08.083Z,3.47
2018-08-28T07:32:42.494Z,3.23
2018-08-28T07:35:17.009Z,3.57
2018-08-28T07:37:51.440Z,3.30
2018-08-28T07:40:25.724Z,3.40
2018-08-28T07:43:00.074Z,3.57
2018-08-28T07:45:34.975Z,3.47
2018-08-28T07:48:09.897Z,3.73
2018-08-28T07:50:44.290Z,3.40
2018-08-28T07:53:19.374Z,3.30
2018-08-28T07:55:53.820Z,3.07
2018-08-28T07:58:28.488Z,3.13
2018-08-28T08:01:03.076Z,3.20
2018-08-28T08:03:38.256Z,3.00
2018-08-28T08:06:12.926Z,2.83
2018-08-28T08:08:47.424Z,3.07
2018-08-28T08:11:21.734Z,3.13
2018-08-28T08:13:56.420Z,3.40
2018-08-28T08:16:30.807Z,3.30
2018-08-28T08:19:05.488Z,3.03
2018-08-28T08:21:39.798Z,3.47
2018-08-28T08:24:14.284Z,3.23
2018-08-28T08:26:48.635Z,3.20
2018-08-28T08:29:23.228Z,3.10
2018-08-28T08:31:57.496Z,3.00
2018-08-28T08:34:31.811Z,2.93
2018-08-28T08:37:06.260Z,3.00
2018-08-28T08:39:40.655Z,3.40
2018-08-28T08:42:14.960Z,3.03
2018-08-28T08:44:49.665Z,3.00
2018-08-28T08:47:24.505Z,2.97
2018-08-28T08:49:58.920Z,3.10
2018-08-28T08:52:33.771Z,2.90
2018-08-28T08:55:08.737Z,3.20
2018-08-28T08:57:43.168Z,3.10
2018-08-28T09:00:17.590Z,2.70
2018-08-28T09:02:52.357Z,2.90
2018-08-28T09:05:26.996Z,2.70
2018-08-28T09:08:01.555Z,3.00
2018-08-28T09:10:36.499Z,3.40
2018-08-28T09:13:10.972Z,3.10
2018-08-28T09:15:45.753Z,2.77
2018-08-28T09:18:21.116Z,2.80
2018-08-28T09:20:55.963Z,2.90
2018-08-28T09:23:30.356Z,3.10
2018-08-28T09:26:05.201Z,2.80
2018-08-28T09:28:39.515Z,3.10
2018-08-28T09:31:14.553Z,3.30
2018-08-28T09:33:49.769Z,2.80
2018-08-28T09:36:24.510Z,3.00
2018-08-28T09:38:58.853Z,2.60
2018-08-28T09:41:33.314Z,2.90
2018-08-28T09:44:07.964Z,2.97
2018-08-28T09:46:42.495Z,2.70
2018-08-28T09:49:16.795Z,2.70
2018-08-28T09:51:51.445Z,2.50
2018-08-28T09:54:26.164Z,2.60
2018-08-28T09:57:00.468Z,2.63
2018-08-28T09:59:34.841Z,2.53
2018-08-28T10:02:10.054Z,2.50
2018-08-28T10:04:44.503Z,2.97
2018-08-28T10:07:19.687Z,2.97
2018-08-28T10:09:54.108Z,3.00
2018-08-28T10:12:28.740Z,3.10
2018-08-28T10:15:03.244Z,2.93
2018-08-28T10:17:38.295Z,3.50
2018-08-28T10:20:12.735Z,3.10
2018-08-28T10:22:47.778Z,2.80
2018-08-28T10:25:22.483Z,3.00
2018-08-28T10:27:56.785Z,3.70
2018-08-28T10:30:31.715Z,3.77
2018-08-28T10:33:06.779Z,3.30
2018-08-28T10:35:41.194Z,3.00
2018-08-28T10:38:15.868Z,3.53
2018-08-28T10:40:50.572Z,3.37
2018-08-28T10:43:25.203Z,3.30
2018-08-28T10:46:00.069Z,3.40
2018-08-28T10:48:35.019Z,3.50
2018-08-28T10:51:10.289Z,3.50
2018-08-28T10:53:45.324Z,3.37
2018-08-28T10:56:19.616Z,3.13
2018-08-28T10:58:55.136Z,3.70
2018-08-28T11:01:29.772Z,3.90
2018-08-28T11:04:04.200Z,3.57
2018-08-28T11:06:38.649Z,3.00
2018-08-28T11:09:15.535Z,3.70
2018-08-28T11:11:50.368Z,3.43
2018-08-28T11:14:25.206Z,3.53
2018-08-28T11:16:59.571Z,3.43
2018-08-28T11:22:37.128Z,3.50
2018-08-28T11:25:11.515Z,3.37
2018-08-28T11:27:46.388Z,3.93
2018-08-28T11:30:21.263Z,3.70
2018-08-28T11:32:55.850Z,3.60
2018-08-28T11:35:30.639Z,3.50
2018-08-28T11:38:05.287Z,3.73
2018-08-28T11:40:39.699Z,3.80
2018-08-28T11:43:14.575Z,3.90
2018-08-28T11:45:49.382Z,4.00
2018-08-28T11:48:23.683Z,4.50
2018-08-28T11:50:57.991Z,3.80
2018-08-28T11:53:32.487Z,4.07
2018-08-28T11:56:07.216Z,3.73
2018-08-28T11:58:42.087Z,4.03
2018-08-28T12:01:17.148Z,4.10
2018-08-28T12:03:52.093Z,3.90
2018-08-28T12:06:27.204Z,3.97
2018-08-28T12:09:01.834Z,3.50
2018-08-28T12:11:36.784Z,4.43
2018-08-28T12:14:11.394Z,4.10
2018-08-28T12:16:46.209Z,4.83
2018-08-28T12:19:21.163Z,4.40
2018-08-28T12:21:55.703Z,4.27
2018-08-28T12:24:30.060Z,4.10
2018-08-28T12:27:05.609Z,3.90
2018-08-28T12:29:40.018Z,4.53
2018-08-28T12:32:14.898Z,4.33
2018-08-28T12:34:49.781Z,4.33
2018-08-28T12:37:24.683Z,4.50
2018-08-28T12:39:59.491Z,4.00
2018-08-28T12:42:33.799Z,4.20
2018-08-28T12:45:08.232Z,4.17
2018-08-28T12:47:42.480Z,4.20
2018-08-28T12:50:17.135Z,4.17
2018-08-28T12:52:52.024Z,3.90
2018-08-28T12:55:26.852Z,4.37
2018-08-28T12:58:01.520Z,4.37
2018-08-28T13:00:36.294Z,4.40
2018-08-28T13:03:11.483Z,4.43
2018-08-28T13:05:47.079Z,4.10
2018-08-28T13:08:21.647Z,4.50
2018-08-28T13:10:55.995Z,4.40
2018-08-28T13:13:30.382Z,4.93
2018-08-28T13:16:04.829Z,4.90
2018-08-28T13:18:39.247Z,5.00
2018-08-28T13:21:13.918Z,4.40
2018-08-28T13:23:48.612Z,5.13
2018-08-28T13:26:23.255Z,4.87
2018-08-28T13:28:57.989Z,4.97
2018-08-28T13:31:32.796Z,4.37
2018-08-28T13:34:07.395Z,4.23
2018-08-28T13:36:42.394Z,5.37
2018-08-28T13:39:17.668Z,5.13
2018-08-28T13:41:52.631Z,4.60
2018-08-28T13:44:27.096Z,5.23
2018-08-28T13:47:01.605Z,5.20
2018-08-28T13:49:36.393Z,4.57
2018-08-28T13:52:11.119Z,5.07
2018-08-28T13:54:45.448Z,4.73
2018-08-28T13:57:19.855Z,5.07
2018-08-28T13:59:54.746Z,4.60
2018-08-28T14:02:29.975Z,5.37
2018-08-28T14:05:04.953Z,4.90
2018-08-28T14:07:39.396Z,5.00
2018-08-28T14:10:14.661Z,5.20
2018-08-28T14:12:49.351Z,5.80
2018-08-28T14:15:23.842Z,5.20
2018-08-28T14:17:58.581Z,4.60
2018-08-28T14:20:33.577Z,5.00
2018-08-28T14:23:09.096Z,4.60
2018-08-28T14:25:43.402Z,5.10
2018-08-28T14:28:17.831Z,5.20
2018-08-28T14:30:52.487Z,5.70
2018-08-28T14:33:27.692Z,5.60
2018-08-28T14:36:03.224Z,5.20
2018-08-28T14:38:38.010Z,5.40
2018-08-28T14:41:13.059Z,5.33
2018-08-28T14:43:47.635Z,5.73
2018-08-28T14:46:21.899Z,5.53
2018-08-28T14:48:56.578Z,6.33
2018-08-28T14:51:31.448Z,5.23
2018-08-28T14:54:06.319Z,4.87
2018-08-28T14:56:41.225Z,5.63
2018-08-28T14:59:15.732Z,5.00
2018-08-28T15:01:50.648Z,5.80
2018-08-28T15:04:25.469Z,6.00
2018-08-28T15:06:59.838Z,5.70
2018-08-28T15:09:34.608Z,5.67
2018-08-28T15:12:09.116Z,5.87
2018-08-28T15:14:43.525Z,6.20
2018-08-28T15:17:18.348Z,6.47
2018-08-28T15:19:53.266Z,6.00
2018-08-28T15:22:27.940Z,5.57
2018-08-28T15:25:02.663Z,5.43
2018-08-28T15:27:37.406Z,5.73
2018-08-28T15:30:12.379Z,6.20
2018-08-28T15:32:47.346Z,5.63
2018-08-28T15:35:22.081Z,5.30
2018-08-28T15:37:56.599Z,5.60
2018-08-28T15:40:31.455Z,5.60
2018-08-28T15:43:06.924Z,5.73
2018-08-28T15:45:41.797Z,6.10
2018-08-28T15:48:16.278Z,6.70
2018-08-28T15:50:51.599Z,5.90
2018-08-28T15:53:26.096Z,5.90
2018-08-28T15:56:01.219Z,6.20
2018-08-28T15:58:35.975Z,5.70
2018-08-28T16:01:10.707Z,6.20
2018-08-28T16:03:45.342Z,5.70
2018-08-28T16:06:20.400Z,5.57
2018-08-28T16:08:54.738Z,6.03
2018-08-28T16:11:29.461Z,5.87
2018-08-28T16:14:03.864Z,5.67
2018-08-28T16:16:38.270Z,7.03
2018-08-28T16:19:12.978Z,6.57
2018-08-28T16:21:50.761Z,6.17
2018-08-28T16:24:25.201Z,5.97
2018-08-28T16:26:59.940Z,6.00
2018-08-28T16:29:34.423Z,5.87
2018-08-28T16:32:09.352Z,6.07
2018-08-28T16:34:44.648Z,6.13
2018-08-28T16:37:19.223Z,5.93
2018-08-28T16:39:53.879Z,5.97
2018-08-28T16:42:28.594Z,6.60
2018-08-28T16:45:03.358Z,6.80
2018-08-28T16:47:37.806Z,6.63
2018-08-28T16:50:12.623Z,6.10
2018-08-28T16:52:47.067Z,6.63
2018-08-28T16:55:21.372Z,6.57
2018-08-28T16:57:56.157Z,6.57
2018-08-28T17:00:30.840Z,6.00
2018-08-28T17:03:06.208Z,6.70
2018-08-28T17:05:40.835Z,6.30
2018-08-28T17:08:15.731Z,6.30
2018-08-28T17:10:50.049Z,6.23
2018-08-28T17:13:25.083Z,6.37
2018-08-28T17:16:00.120Z,6.60
2018-08-28T17:18:34.718Z,6.47
2018-08-28T17:21:09.015Z,6.73
2018-08-28T17:23:43.985Z,6.83
2018-08-28T17:26:18.299Z,6.97
2018-08-28T17:28:52.868Z,6.37
2018-08-28T17:31:27.605Z,6.30
2018-08-28T17:34:02.367Z,6.10
2018-08-28T17:36:36.921Z,6.40
2018-08-28T17:39:11.690Z,6.37
2018-08-28T17:41:46.309Z,6.70
2018-08-28T17:44:20.638Z,6.90
2018-08-28T17:46:55.275Z,6.63
2018-08-28T17:49:29.808Z,6.77
2018-08-28T17:52:04.471Z,6.53
2018-08-28T17:54:39.183Z,6.20
2018-08-28T17:57:14.249Z,6.83
2018-08-28T17:59:48.907Z,6.97
2018-08-28T18:02:23.975Z,6.50
2018-08-28T18:04:58.576Z,7.20
2018-08-28T18:07:33.087Z,6.30
2018-08-28T18:10:07.853Z,7.30
2018-08-28T18:12:42.351Z,6.50
2018-08-28T18:15:17.089Z,6.33
2018-08-28T18:17:51.777Z,6.50
2018-08-28T18:20:26.347Z,7.00
2018-08-28T18:23:01.544Z,7.60
2018-08-28T18:25:36.300Z,7.27
2018-08-28T18:28:11.040Z,7.10
2018-08-28T18:30:46.368Z,7.07
2018-08-28T18:33:20.957Z,6.80
2018-08-28T18:35:55.719Z,7.17
2018-08-28T18:38:30.541Z,7.83
2018-08-28T18:41:05.692Z,7.30
2018-08-28T18:43:40.268Z,7.00
2018-08-28T18:46:14.813Z,7.23
2018-08-28T18:48:49.769Z,7.10
2018-08-28T18:51:24.642Z,7.17
2018-08-28T18:53:58.971Z,7.13
2018-08-28T18:56:33.596Z,7.00
2018-08-28T18:59:08.696Z,7.47
2018-08-28T19:01:43.160Z,8.13
2018-08-28T19:04:17.656Z,8.10
2018-08-28T19:06:51.980Z,8.63
2018-08-28T19:09:26.974Z,8.70
2018-08-28T19:12:02.610Z,8.70
2018-08-28T19:14:37.311Z,8.60
2018-08-28T19:17:11.860Z,7.90
2018-08-28T19:19:46.632Z,8.00
2018-08-28T19:22:21.095Z,8.23
2018-08-28T19:24:55.972Z,7.93
2018-08-28T19:27:30.925Z,8.80
2018-08-28T19:30:05.841Z,7.87
2018-08-28T19:32:40.447Z,8.20
2018-08-28T19:35:15.043Z,7.93
2018-08-28T19:37:50.328Z,8.17
2018-08-28T19:40:24.673Z,8.03
2018-08-28T19:42:59.546Z,7.80
2018-08-28T19:45:34.301Z,7.57
2018-08-28T19:48:09.132Z,7.83
2018-08-28T19:50:44.434Z,8.03
2018-08-28T19:53:19.146Z,7.87
2018-08-28T19:55:53.596Z,7.87
2018-08-28T19:58:27.981Z,8.80
2018-08-28T20:01:02.395Z,7.30
2018-08-28T20:03:37.223Z,7.57
2018-08-28T20:06:11.700Z,8.30
2018-08-28T20:08:46.119Z,8.40
2018-08-28T20:11:20.425Z,8.17
2018-08-28T20:13:55.226Z,8.27
2018-08-28T20:16:29.524Z,8.30
2018-08-28T20:19:04.169Z,8.07
2018-08-28T20:21:38.940Z,7.93
2018-08-28T20:24:13.323Z,7.97
2018-08-28T20:26:48.410Z,8.20
2018-08-28T20:29:23.226Z,7.67
2018-08-28T20:31:58.386Z,7.30
2018-08-28T20:34:33.312Z,8.03
2018-08-28T20:37:07.713Z,8.30
2018-08-28T20:39:42.859Z,7.57
2018-08-28T20:42:17.638Z,7.87
2018-08-28T20:44:52.347Z,8.27
2018-08-28T20:47:27.016Z,8.23
2018-08-28T20:50:03.375Z,8.00
2018-08-28T20:52:38.100Z,8.47
2018-08-28T20:55:13.176Z,8.13
2018-08-28T20:57:47.730Z,7.63
2018-08-28T21:00:23.346Z,7.70
2018-08-28T21:02:58.284Z,8.30
2018-08-28T21:05:32.663Z,8.30
2018-08-28T21:08:06.402Z,8.33
2018-08-28T21:10:41.000Z,8.00
2018-08-28T21:13:15.680Z,8.50
2018-08-28T21:15:50.392Z,8.10
2018-08-28T21:18:24.893Z,7.87
2018-08-28T21:20:59.456Z,7.97
2018-08-28T21:23:34.136Z,8.23
2018-08-28T21:26:09.199Z,8.63
2018-08-28T21:28:43.756Z,8.60
2018-08-28T21:31:18.753Z,9.00
2018-08-28T21:33:54.563Z,9.40
2018-08-28T21:36:29.280Z,8.50
2018-08-28T21:39:04.220Z,8.50
2018-08-28T21:41:39.460Z,8.77
2018-08-28T21:44:14.079Z,8.53
2018-08-28T21:46:49.914Z,8.90
2018-08-28T21:49:24.504Z,8.87
2018-08-28T21:51:59.071Z,8.00
2018-08-28T21:54:33.823Z,8.20
2018-08-28T21:57:08.457Z,8.73
2018-08-28T21:59:43.159Z,8.37
2018-08-28T22:02:17.567Z,8.63
2018-08-28T22:04:52.239Z,8.57
2018-08-28T22:07:33.353Z,8.40
2018-08-28T22:10:07.964Z,8.20
2018-08-28T22:12:42.456Z,9.50
2018-08-28T22:15:16.889Z,9.23
2018-08-28T22:17:51.349Z,8.80
2018-08-28T22:20:26.140Z,9.27
2018-08-28T22:23:00.545Z,8.83
2018-08-28T22:25:34.969Z,8.40
2018-08-28T22:28:09.528Z,8.53
2018-08-28T22:30:44.800Z,9.03
2018-08-28T22:33:22.840Z,9.40
2018-08-28T22:35:57.653Z,9.50
2018-08-28T22:38:32.783Z,9.70
2018-08-28T22:41:07.506Z,8.57
2018-08-28T22:43:43.076Z,8.47
2018-08-28T22:46:21.184Z,9.27
2018-08-28T22:48:55.851Z,8.80
2018-08-28T22:51:30.976Z,8.30
2018-08-28T22:54:05.804Z,8.87
2018-08-28T22:56:40.439Z,8.67
2018-08-28T22:59:14.891Z,8.57
2018-08-28T23:01:50.073Z,8.57
2018-08-28T23:04:25.269Z,8.67
2018-08-28T23:07:02.115Z,9.13
2018-08-28T23:09:37.829Z,9.10
2018-08-28T23:12:12.658Z,8.83
2018-08-28T23:14:47.344Z,8.60
2018-08-28T23:17:22.229Z,8.57
2018-08-28T23:19:56.984Z,8.93
2018-08-28T23:22:31.748Z,8.57
2018-08-28T23:25:06.812Z,9.03
2018-08-28T23:27:41.208Z,8.97
2018-08-28T23:30:15.564Z,8.50
2018-08-28T23:32:54.583Z,8.63
2018-08-28T23:35:29.147Z,9.57
2018-08-28T23:38:03.433Z,8.90
2018-08-28T23:40:37.919Z,9.00
2018-08-28T23:43:13.512Z,8.80
2018-08-28T23:45:47.912Z,8.77
2018-08-28T23:48:22.368Z,8.13
2018-08-28T23:50:57.583Z,8.63
2018-08-28T23:53:32.275Z,8.50
2018-08-28T23:56:08.062Z,8.87
2018-08-28T23:58:42.538Z,8.50
